Time;durP1;ratioP1;P1;durP2;ratioP2;P2;SDS_P1;SDS_P2;PMS_P1;PMS_P2;Temp;Humidity;BMP_temperature;BMP_pressure;BME280_temperature;BME280_humidity;BME280_pressure;Samples;Min_cycle;Max_cycle;Signal;HPM_P1;HPM_P2
2023/11/03 04:07:09;;;;;;;0.30;0.30;;;6.50;99.90;;;;;;4973219;28;20222;-65
2023/11/03 04:09:37;;;;;;;0.30;0.30;;;6.50;99.90;;;;;;4975730;28;20219;-65
2023/11/03 04:12:03;;;;;;;0.30;0.30;;;6.50;99.90;;;;;;4974890;28;20168;-66
2023/11/03 04:14:29;;;;;;;0.30;0.30;;;6.60;99.90;;;;;;4975268;28;20179;-65
2023/11/03 04:16:54;;;;;;;0.30;0.30;;;6.60;99.90;;;;;;4975470;28;20206;-65
2023/11/03 04:19:20;;;;;;;0.30;0.30;;;6.70;99.90;;;;;;4975580;28;20181;-65
2023/11/03 04:21:46;;;;;;;0.30;0.23;;;6.60;99.90;;;;;;4975773;28;20712;-64
2023/11/03 04:24:11;;;;;;;0.40;0.40;;;6.70;99.90;;;;;;4974681;28;20231;-64
2023/11/03 04:26:38;;;;;;;0.30;0.30;;;6.70;99.90;;;;;;4974704;28;20196;-65
2023/11/03 04:29:04;;;;;;;0.30;0.28;;;6.70;99.90;;;;;;4974943;28;20241;-65
2023/11/03 04:31:30;;;;;;;0.30;0.20;;;6.70;99.90;;;;;;4957928;28;20207;-65
2023/11/03 04:33:56;;;;;;;0.30;0.30;;;6.70;99.90;;;;;;4974966;28;20438;-65
2023/11/03 04:36:21;;;;;;;0.30;0.30;;;6.80;99.90;;;;;;4956069;28;20208;-65
2023/11/03 04:38:47;;;;;;;0.30;0.30;;;6.80;99.90;;;;;;4974869;28;20186;-66
2023/11/03 04:41:13;;;;;;;0.30;0.20;;;6.80;99.90;;;;;;4974894;28;20179;-65
2023/11/03 04:43:39;;;;;;;0.30;0.30;;;6.90;99.90;;;;;;4975239;28;20178;-65
2023/11/03 04:46:08;;;;;;;0.40;0.40;;;6.90;99.90;;;;;;4974666;28;20489;-65
2023/11/03 04:48:35;;;;;;;0.30;0.30;;;7.00;99.90;;;;;;4974961;28;20199;-65
2023/11/03 04:51:01;;;;;;;0.30;0.30;;;7.20;99.90;;;;;;4975634;28;20210;-65
2023/11/03 04:53:27;;;;;;;0.30;0.30;;;7.30;99.90;;;;;;4974861;28;20176;-67
2023/11/03 04:55:53;;;;;;;0.30;0.20;;;7.30;99.90;;;;;;4974565;28;20259;-64
2023/11/03 04:58:21;;;;;;;0.30;0.30;;;7.40;99.90;;;;;;4974975;28;20183;-65
2023/11/03 05:00:47;;;;;;;0.35;0.35;;;7.40;99.90;;;;;;4974169;28;20168;-65
2023/11/03 05:03:14;;;;;;;0.30;0.30;;;7.30;99.90;;;;;;4974633;28;20203;-65
2023/11/03 05:05:41;;;;;;;0.30;0.30;;;7.30;99.90;;;;;;4974469;28;20210;-65
2023/11/03 05:08:08;;;;;;;0.30;0.30;;;7.30;99.90;;;;;;4974834;28;20179;-65
2023/11/03 05:10:33;;;;;;;0.30;0.30;;;7.40;99.90;;;;;;4974495;28;20212;-65
2023/11/03 05:13:00;;;;;;;0.30;0.30;;;7.40;99.90;;;;;;4974703;28;20176;-64
2023/11/03 05:15:26;;;;;;;0.30;0.20;;;7.40;99.90;;;;;;4974229;28;20431;-66
2023/11/03 05:17:51;;;;;;;0.30;0.30;;;7.50;99.90;;;;;;4974715;28;20267;-65
2023/11/03 05:20:17;;;;;;;0.30;0.30;;;7.50;99.90;;;;;;4974795;28;20419;-64
2023/11/03 05:22:43;;;;;;;0.30;0.30;;;7.50;99.90;;;;;;4974574;28;20566;-64
2023/11/03 05:25:08;;;;;;;0.30;0.30;;;7.60;99.90;;;;;;4973865;28;20224;-64
2023/11/03 05:27:34;;;;;;;0.30;0.30;;;7.60;99.90;;;;;;4974739;28;20450;-65
2023/11/03 05:29:59;;;;;;;0.30;0.30;;;7.60;99.90;;;;;;4974575;28;20210;-66
2023/11/03 05:32:25;;;;;;;0.30;0.30;;;7.60;99.90;;;;;;4974763;28;20207;-65
2023/11/03 05:34:51;;;;;;;0.30;0.20;;;7.70;99.90;;;;;;4974051;28;20242;-64
2023/11/03 05:37:16;;;;;;;0.30;0.30;;;7.70;99.90;;;;;;4974531;28;20170;-64
2023/11/03 05:39:42;;;;;;;0.30;0.30;;;7.70;99.90;;;;;;4974282;28;20630;-64
2023/11/03 05:42:07;;;;;;;0.30;0.30;;;7.70;99.90;;;;;;4974709;28;20233;-64
2023/11/03 05:44:33;;;;;;;0.30;0.30;;;7.70;99.90;;;;;;4974144;28;20244;-65
2023/11/03 05:47:02;;;;;;;0.30;0.30;;;7.70;99.90;;;;;;4956589;28;20266;-64
2023/11/03 05:49:28;;;;;;;0.30;0.30;;;7.70;99.90;;;;;;4974444;28;20232;-65
2023/11/03 05:51:54;;;;;;;0.30;0.20;;;7.70;99.90;;;;;;4974612;28;20558;-64
2023/11/03 05:54:19;;;;;;;0.30;0.30;;;7.60;99.90;;;;;;4973794;28;20176;-64
2023/11/03 05:56:45;;;;;;;0.30;0.30;;;7.60;99.90;;;;;;4974391;28;20665;-64
2023/11/03 05:59:11;;;;;;;0.30;0.30;;;7.60;99.90;;;;;;4974447;28;20191;-65
2023/11/03 06:01:37;;;;;;;0.30;0.30;;;7.70;99.90;;;;;;4974411;28;20601;-65
2023/11/03 06:04:02;;;;;;;0.30;0.30;;;7.70;99.90;;;;;;4974051;28;20175;-64
2023/11/03 06:06:28;;;;;;;0.37;0.37;;;7.70;99.90;;;;;;4974168;28;20215;-64
2023/11/03 06:08:55;;;;;;;0.40;0.40;;;7.80;99.90;;;;;;4973722;28;20200;-64
2023/11/03 06:11:21;;;;;;;0.30;0.30;;;7.80;99.90;;;;;;4975437;28;20537;-63
2023/11/03 06:13:47;;;;;;;0.30;0.20;;;7.90;99.90;;;;;;4977842;28;20168;-75
2023/11/03 06:16:13;;;;;;;0.30;0.30;;;7.90;99.90;;;;;;4977591;28;20443;-65
2023/11/03 06:18:40;;;;;;;0.30;0.20;;;8.00;99.90;;;;;;4977651;28;20423;-64
2023/11/03 06:21:06;;;;;;;0.30;0.30;;;8.00;99.90;;;;;;4977682;28;20231;-65
2023/11/03 06:23:32;;;;;;;0.30;0.30;;;8.00;99.90;;;;;;4977109;28;20175;-64
2023/11/03 06:25:57;;;;;;;0.40;0.40;;;8.10;99.90;;;;;;4977057;28;20200;-67
2023/11/03 06:28:23;;;;;;;0.30;0.30;;;8.10;99.90;;;;;;4977750;28;20494;-65
2023/11/03 06:30:49;;;;;;;0.30;0.30;;;8.20;99.90;;;;;;4977504;28;20242;-65
2023/11/03 06:33:15;;;;;;;0.30;0.30;;;8.20;99.90;;;;;;4977673;28;20180;-65
2023/11/03 06:35:41;;;;;;;0.30;0.30;;;8.30;99.90;;;;;;4977199;28;20196;-64
2023/11/03 06:38:09;;;;;;;0.30;0.30;;;8.30;99.90;;;;;;4977195;28;20657;-65
2023/11/03 06:40:35;;;;;;;0.30;0.30;;;8.30;99.90;;;;;;4976181;28;20650;-64
2023/11/03 06:43:00;;;;;;;0.60;0.60;;;8.40;99.90;;;;;;4977386;28;20184;-65
2023/11/03 06:45:26;;;;;;;0.30;0.30;;;8.40;99.90;;;;;;4976777;28;20207;-65
2023/11/03 06:47:51;;;;;;;0.30;0.30;;;8.40;99.90;;;;;;4975696;28;20271;-64
2023/11/03 06:50:17;;;;;;;0.30;0.30;;;8.40;99.90;;;;;;4976968;28;20204;-64
2023/11/03 06:52:43;;;;;;;0.40;0.40;;;8.40;99.90;;;;;;4976797;28;20176;-65
2023/11/03 06:55:09;;;;;;;0.37;0.37;;;8.50;99.90;;;;;;4976788;28;20463;-66
2023/11/03 06:57:35;;;;;;;0.30;0.20;;;8.50;99.90;;;;;;4977062;28;20187;-64
2023/11/03 07:00:01;;;;;;;0.30;0.20;;;8.50;99.90;;;;;;4976942;28;20188;-64
2023/11/03 07:02:27;;;;;;;0.30;0.20;;;8.50;99.90;;;;;;4976855;28;20226;-63
2023/11/03 07:04:52;;;;;;;0.30;0.20;;;8.50;99.90;;;;;;4976474;28;20194;-61
2023/11/03 07:07:18;;;;;;;0.30;0.30;;;8.50;99.90;;;;;;4976598;28;20192;-62
2023/11/03 07:09:44;;;;;;;0.30;0.30;;;8.50;99.90;;;;;;4976284;28;20663;-63
2023/11/03 07:12:11;;;;;;;0.30;0.30;;;8.50;99.90;;;;;;4976705;28;20168;-63
2023/11/03 07:14:38;;;;;;;0.30;0.28;;;8.50;99.90;;;;;;4976004;28;20290;-62
2023/11/03 07:17:04;;;;;;;0.30;0.30;;;8.60;99.90;;;;;;4976547;28;20251;-64
2023/11/03 07:19:29;;;;;;;0.30;0.30;;;8.60;99.90;;;;;;4976257;28;20180;-62
2023/11/03 07:21:55;;;;;;;0.30;0.20;;;8.60;99.90;;;;;;4976239;28;20214;-63
2023/11/03 07:24:23;;;;;;;0.30;0.30;;;8.60;99.90;;;;;;4973854;28;20552;-63
2023/11/03 07:26:50;;;;;;;0.30;0.30;;;8.60;99.90;;;;;;4975947;28;20258;-62
2023/11/03 07:29:17;;;;;;;0.30;0.30;;;8.60;99.90;;;;;;4976352;28;20209;-63
2023/11/03 07:31:42;;;;;;;0.40;0.40;;;8.60;99.90;;;;;;4976243;28;20168;-64
2023/11/03 07:34:08;;;;;;;0.30;0.30;;;8.60;99.90;;;;;;4975861;28;20708;-64
2023/11/03 07:36:34;;;;;;;0.30;0.30;;;8.60;99.90;;;;;;4976273;28;20707;-64
2023/11/03 07:39:01;;;;;;;0.30;0.30;;;8.60;99.90;;;;;;4975892;28;20199;-67
2023/11/03 07:41:27;;;;;;;0.40;0.40;;;8.70;99.90;;;;;;4975977;28;20403;-65
2023/11/03 07:43:53;;;;;;;0.30;0.30;;;8.60;99.90;;;;;;4975679;28;20175;-64
2023/11/03 07:46:19;;;;;;;0.30;0.30;;;8.70;99.90;;;;;;4975815;28;20211;-63
2023/11/03 07:48:45;;;;;;;0.37;0.37;;;8.70;99.90;;;;;;4975725;28;20608;-63
2023/11/03 07:51:11;;;;;;;0.30;0.20;;;8.70;99.90;;;;;;4975979;28;20180;-62
2023/11/03 07:53:36;;;;;;;0.30;0.20;;;8.70;99.90;;;;;;4975940;28;20573;-62
2023/11/03 07:56:02;;;;;;;0.30;0.20;;;8.70;99.90;;;;;;4975226;28;20200;-64
2023/11/03 07:58:29;;;;;;;0.30;0.20;;;8.80;99.90;;;;;;4975541;28;20172;-64
2023/11/03 08:00:57;;;;;;;0.30;0.30;;;8.80;99.90;;;;;;4967787;28;20866;-64
2023/11/03 08:03:27;;;;;;;0.30;0.30;;;8.80;99.90;;;;;;4975385;28;20211;-61
2023/11/03 08:05:53;;;;;;;0.30;0.30;;;8.80;99.90;;;;;;4974694;28;20207;-62
2023/11/03 08:08:19;;;;;;;0.30;0.30;;;8.90;99.90;;;;;;4975039;28;20177;-62
2023/11/03 08:10:44;;;;;;;0.30;0.30;;;8.90;99.90;;;;;;4975852;28;20277;-67
2023/11/03 08:13:10;;;;;;;0.30;0.20;;;8.90;99.90;;;;;;4975456;28;20652;-61
2023/11/03 08:15:36;;;;;;;0.30;0.30;;;9.00;99.90;;;;;;4972789;28;20208;-61
2023/11/03 08:18:03;;;;;;;0.30;0.30;;;9.10;99.90;;;;;;4975125;28;20251;-63
2023/11/03 08:20:29;;;;;;;0.30;0.20;;;9.10;99.90;;;;;;4975022;28;20228;-63
2023/11/03 08:22:54;;;;;;;0.30;0.30;;;9.20;99.90;;;;;;4974982;28;20172;-66
2023/11/03 08:25:20;;;;;;;0.30;0.30;;;9.20;99.90;;;;;;4974392;28;20207;-61
2023/11/03 08:27:46;;;;;;;0.30;0.20;;;9.20;99.90;;;;;;4975112;28;20181;-62
2023/11/03 08:30:12;;;;;;;0.30;0.30;;;9.30;99.90;;;;;;4974434;28;20236;-63
2023/11/03 08:32:37;;;;;;;0.30;0.30;;;9.40;99.90;;;;;;4974942;28;20168;-63
2023/11/03 08:35:10;;;;;;;0.30;0.27;;;9.40;99.90;;;;;;4973026;28;20733;-64
2023/11/03 08:37:35;;;;;;;0.30;0.20;;;9.50;99.90;;;;;;4974785;28;20195;-63
2023/11/03 08:40:01;;;;;;;0.30;0.20;;;9.60;99.90;;;;;;4974947;28;20213;-62
2023/11/03 08:42:26;;;;;;;0.30;0.30;;;9.70;99.90;;;;;;4974655;28;20192;-64
2023/11/03 08:44:52;;;;;;;0.30;0.30;;;9.80;99.90;;;;;;4973883;28;20202;-65
2023/11/03 08:47:19;;;;;;;0.30;0.30;;;9.90;99.90;;;;;;4974578;28;20202;-64
2023/11/03 08:49:44;;;;;;;0.30;0.28;;;10.00;99.90;;;;;;4974435;28;20451;-63
2023/11/03 08:52:12;;;;;;;0.30;0.20;;;10.10;99.90;;;;;;4973840;28;20750;-66
2023/11/03 08:54:38;;;;;;;0.30;0.30;;;10.10;99.90;;;;;;4973838;28;20177;-64
2023/11/03 08:57:05;;;;;;;0.30;0.30;;;10.10;99.90;;;;;;4974293;28;20171;-62
2023/11/03 08:59:31;;;;;;;0.30;0.30;;;10.20;99.90;;;;;;4973903;28;20556;-64
2023/11/03 09:01:57;;;;;;;0.30;0.20;;;10.20;99.90;;;;;;4973895;28;20183;-64
2023/11/03 09:04:23;;;;;;;0.30;0.20;;;10.30;99.90;;;;;;4973601;28;20172;-65
2023/11/03 09:06:48;;;;;;;0.30;0.30;;;10.40;99.90;;;;;;4973248;28;20296;-63
2023/11/03 09:09:16;;;;;;;0.30;0.30;;;10.40;99.90;;;;;;4973549;28;20457;-64
2023/11/03 09:11:41;;;;;;;0.30;0.30;;;10.50;99.90;;;;;;4973712;28;20272;-65
2023/11/03 09:14:08;;;;;;;0.30;0.20;;;10.50;99.90;;;;;;4972737;28;20263;-65
2023/11/03 09:16:35;;;;;;;0.30;0.30;;;10.60;99.90;;;;;;4973419;28;20198;-64
2023/11/03 09:19:01;;;;;;;0.30;0.20;;;10.60;99.90;;;;;;4973604;28;20771;-66
2023/11/03 09:21:27;;;;;;;0.30;0.23;;;10.70;99.90;;;;;;4973570;28;20416;-65
2023/11/03 09:23:52;;;;;;;0.30;0.30;;;10.70;99.90;;;;;;4973622;28;20411;-66
2023/11/03 09:26:18;;;;;;;0.30;0.20;;;10.70;99.90;;;;;;4973337;28;20516;-64
2023/11/03 09:28:45;;;;;;;0.30;0.20;;;10.70;99.90;;;;;;4973280;28;20883;-65
2023/11/03 09:31:10;;;;;;;0.30;0.20;;;10.80;99.90;;;;;;4973494;28;20270;-66
2023/11/03 09:33:36;;;;;;;0.30;0.30;;;10.80;99.90;;;;;;4973273;28;20496;-65
2023/11/03 09:36:05;;;;;;;0.30;0.30;;;10.80;99.90;;;;;;4972872;28;20195;-64
2023/11/03 09:38:32;;;;;;;0.30;0.20;;;10.80;99.90;;;;;;4973543;28;20784;-64
2023/11/03 09:40:57;;;;;;;0.30;0.20;;;10.90;99.90;;;;;;4973203;28;20430;-62
2023/11/03 09:43:23;;;;;;;0.30;0.20;;;10.90;99.90;;;;;;4973494;28;20780;-64
2023/11/03 09:45:49;;;;;;;0.30;0.30;;;11.00;99.90;;;;;;4972250;28;20490;-67
2023/11/03 09:48:19;;;;;;;0.30;0.30;;;11.10;99.90;;;;;;4976691;28;20434;-63
2023/11/03 09:50:47;;;;;;;0.30;0.30;;;11.10;99.90;;;;;;4975360;28;20446;-64
2023/11/03 09:53:19;;;;;;;0.30;0.20;;;11.20;99.90;;;;;;4976354;28;20472;-65
2023/11/03 09:55:44;;;;;;;0.30;0.20;;;11.40;99.90;;;;;;4975856;28;20936;-65
2023/11/03 09:58:10;;;;;;;0.30;0.20;;;11.40;99.90;;;;;;4976515;28;20427;-65
2023/11/03 10:00:37;;;;;;;0.30;0.27;;;11.60;99.90;;;;;;4976208;28;20172;-64
2023/11/03 10:03:04;;;;;;;0.30;0.30;;;11.70;99.90;;;;;;4974750;28;20623;-66
2023/11/03 10:05:31;;;;;;;0.30;0.30;;;11.90;99.90;;;;;;4925881;28;1457997;-66
2023/11/03 10:08:05;;;;;;;0.30;0.30;;;11.90;99.90;;;;;;4977773;28;20403;-67
2023/11/03 10:10:35;;;;;;;0.30;0.30;;;12.00;99.90;;;;;;4976912;28;20465;-64
2023/11/03 10:13:06;;;;;;;0.30;0.30;;;12.10;99.90;;;;;;4977627;28;20407;-64
2023/11/03 10:15:32;;;;;;;0.30;0.30;;;12.20;99.90;;;;;;4976915;28;20402;-65
2023/11/03 10:17:57;;;;;;;0.30;0.30;;;12.30;99.90;;;;;;4977577;28;20400;-67
2023/11/03 10:20:27;;;;;;;0.30;0.20;;;12.40;99.90;;;;;;4977669;28;20638;-66
2023/11/03 10:22:53;;;;;;;0.30;0.20;;;12.30;99.90;;;;;;4977636;28;20533;-67
2023/11/03 10:25:18;;;;;;;0.30;0.20;;;12.30;99.90;;;;;;4976677;28;20492;-66
2023/11/03 10:27:54;;;;;;;0.30;0.30;;;12.30;99.90;;;;;;4977983;28;20405;-65
2023/11/03 10:30:20;;;;;;;0.30;0.30;;;12.30;99.90;;;;;;4977589;28;20203;-67
2023/11/03 10:32:46;;;;;;;0.30;0.27;;;12.40;99.90;;;;;;4977351;28;20420;-67
2023/11/03 10:35:14;;;;;;;0.30;0.30;;;12.40;99.90;;;;;;4977003;28;20497;-67
2023/11/03 10:37:40;;;;;;;0.30;0.30;;;12.40;99.90;;;;;;4977471;28;20868;-67
2023/11/03 10:40:12;;;;;;;0.30;0.20;;;12.40;99.90;;;;;;4977191;28;20423;-66
2023/11/03 10:42:40;;;;;;;0.33;0.33;;;12.40;99.90;;;;;;4975737;28;20514;-67
2023/11/03 10:45:06;;;;;;;0.30;0.30;;;12.30;99.90;;;;;;4976508;28;20474;-64
2023/11/03 10:47:57;;;;;;;0.30;0.30;;;12.40;99.90;;;;;;4977065;28;20821;-65
2023/11/03 10:50:36;;;;;;;0.30;0.30;;;12.30;99.90;;;;;;4963699;28;20478;-65
2023/11/03 10:53:29;;;;;;;0.30;0.30;;;12.30;99.90;;;;;;4976779;28;20430;-65
2023/11/03 10:55:59;;;;;;;0.30;0.20;;;12.30;99.90;;;;;;4976410;28;20782;-65
2023/11/03 10:58:25;;;;;;;0.30;0.30;;;12.30;99.90;;;;;;4975651;28;20990;-67
2023/11/03 11:01:01;;;;;;;0.30;0.30;;;12.30;99.90;;;;;;4976832;28;20494;-65
2023/11/03 11:03:50;;;;;;;0.33;0.33;;;12.30;99.90;;;;;;4976832;28;20163;-67
2023/11/03 11:06:38;;;;;;;0.30;0.27;;;12.30;99.90;;;;;;4976777;28;20458;-68
2023/11/03 11:09:15;;;;;;;0.30;0.20;;;12.30;99.90;;;;;;4976460;28;20860;-64
2023/11/03 11:11:41;;;;;;;0.30;0.30;;;12.20;99.90;;;;;;4976761;28;20490;-62
2023/11/03 11:14:22;;;;;;;0.30;0.30;;;12.30;99.90;;;;;;4976106;28;20501;-63
2023/11/03 11:16:55;;;;;;;0.30;0.20;;;12.40;99.90;;;;;;4976519;28;20432;-65
2023/11/03 11:19:35;;;;;;;0.30;0.30;;;12.40;99.90;;;;;;4976387;28;20413;-64
2023/11/03 11:22:02;;;;;;;0.30;0.27;;;12.50;99.90;;;;;;4976825;28;20948;-64
2023/11/03 11:24:29;;;;;;;0.30;0.20;;;12.50;99.90;;;;;;4976161;28;20430;-65
2023/11/03 11:27:21;;;;;;;0.30;0.30;;;12.50;99.90;;;;;;4976530;28;20542;-63
2023/11/03 11:30:00;;;;;;;0.30;0.30;;;12.60;99.90;;;;;;4976370;28;20470;-65
2023/11/03 11:32:26;;;;;;;0.30;0.30;;;12.50;99.90;;;;;;4976252;28;20784;-64
2023/11/03 11:34:53;;;;;;;0.30;0.20;;;12.40;99.90;;;;;;4976186;28;20999;-65
2023/11/03 11:37:27;;;;;;;0.30;0.30;;;12.50;99.90;;;;;;4976346;28;20375;-66
2023/11/03 11:40:03;;;;;;;0.30;0.20;;;12.50;99.90;;;;;;4975880;28;20762;-66
2023/11/03 11:42:30;;;;;;;0.30;0.20;;;12.50;99.90;;;;;;4976404;28;20831;-66
2023/11/03 11:44:59;;;;;;;0.30;0.30;;;12.50;99.90;;;;;;4975917;28;20924;-64
2023/11/03 11:47:27;;;;;;;0.30;0.30;;;12.50;99.90;;;;;;4976245;28;20406;-65
2023/11/03 11:49:56;;;;;;;0.30;0.20;;;12.50;99.90;;;;;;4974470;28;20826;-63
2023/11/03 11:52:25;;;;;;;0.30;0.30;;;12.40;99.90;;;;;;4975844;28;20416;-65
2023/11/03 11:54:55;;;;;;;0.30;0.20;;;12.40;99.90;;;;;;4975094;28;20518;-66
2023/11/03 11:57:21;;;;;;;0.30;0.20;;;12.40;99.90;;;;;;4975965;28;20788;-62
2023/11/03 11:59:50;;;;;;;0.30;0.20;;;12.40;99.90;;;;;;4974881;28;20976;-66
2023/11/03 12:02:20;;;;;;;0.30;0.20;;;12.40;99.90;;;;;;4976509;28;20884;-62
2023/11/03 12:04:53;;;;;;;0.30;0.20;;;12.40;99.90;;;;;;4975699;28;20423;-65
2023/11/03 12:07:29;;;;;;;0.30;0.20;;;12.40;99.90;;;;;;4975739;28;20801;-64
2023/11/03 12:09:56;;;;;;;0.30;0.20;;;12.30;99.90;;;;;;4956368;28;20474;-65
2023/11/03 12:12:25;;;;;;;0.30;0.20;;;12.40;99.90;;;;;;4964026;28;20469;-64
2023/11/03 12:14:52;;;;;;;0.30;0.30;;;12.30;99.90;;;;;;4975574;28;20432;-65
2023/11/03 12:17:21;;;;;;;0.30;0.20;;;12.40;99.90;;;;;;4975914;28;20418;-66
2023/11/03 12:19:47;;;;;;;0.30;0.20;;;12.40;99.90;;;;;;4975182;28;20948;-63
2023/11/03 12:22:21;;;;;;;0.30;0.20;;;12.40;99.90;;;;;;4975290;28;20414;-64
2023/11/03 12:24:53;;;;;;;0.30;0.30;;;12.40;99.90;;;;;;4975637;28;20429;-65
2023/11/03 12:27:19;;;;;;;0.30;0.30;;;12.40;99.90;;;;;;4976034;28;20486;-64
2023/11/03 12:29:45;;;;;;;0.30;0.30;;;12.40;99.90;;;;;;4976045;28;20550;-65
2023/11/03 12:32:12;;;;;;;0.30;0.30;;;12.40;99.90;;;;;;4975938;28;20486;-64
2023/11/03 12:34:40;;;;;;;0.30;0.30;;;12.40;99.90;;;;;;4975745;28;20419;-66
2023/11/03 12:37:06;;;;;;;0.30;0.30;;;12.40;99.90;;;;;;4976099;28;20811;-66
2023/11/03 12:39:49;;;;;;;0.30;0.30;;;12.40;99.90;;;;;;4970741;28;20466;-65
2023/11/03 12:42:15;;;;;;;0.30;0.20;;;12.40;99.90;;;;;;4974164;28;20466;-64
2023/11/03 12:44:56;;;;;;;0.30;0.30;;;12.40;99.90;;;;;;4973536;28;20854;-64
2023/11/03 12:47:42;;;;;;;0.30;0.30;;;12.50;99.90;;;;;;4974913;28;20390;-60
2023/11/03 12:50:25;;;;;;;0.30;0.30;;;12.50;99.90;;;;;;4974530;28;20473;-63
2023/11/03 12:52:58;;;;;;;0.30;0.30;;;12.50;99.90;;;;;;4974860;28;20415;-64
2023/11/03 12:55:28;;;;;;;0.30;0.27;;;12.40;99.90;;;;;;4958072;28;20920;-65
2023/11/03 12:57:55;;;;;;;0.30;0.30;;;12.30;99.90;;;;;;4955568;29;20460;-65
2023/11/03 13:00:25;;;;;;;0.40;0.40;;;12.30;99.90;;;;;;4955484;28;20418;-68
2023/11/03 13:02:51;;;;;;;0.30;0.20;;;12.20;99.90;;;;;;4954434;29;20490;-68
2023/11/03 13:05:17;;;;;;;0.30;0.30;;;12.10;99.90;;;;;;4974017;28;20517;-65
2023/11/03 13:07:52;;;;;;;0.30;0.20;;;12.10;99.90;;;;;;4974926;28;20783;-68
2023/11/03 13:10:17;;;;;;;0.30;0.30;;;12.20;99.90;;;;;;4974710;28;20458;-69
2023/11/03 13:12:43;;;;;;;0.30;0.30;;;12.10;99.90;;;;;;4974570;28;20812;-68
2023/11/03 13:15:09;;;;;;;0.30;0.20;;;12.20;99.90;;;;;;4974682;28;20405;-66
2023/11/03 13:17:38;;;;;;;0.30;0.30;;;12.20;99.90;;;;;;4974821;28;20225;-68
2023/11/03 13:20:10;;;;;;;0.30;0.30;;;12.20;99.90;;;;;;4972168;28;20439;-68
2023/11/03 13:22:37;;;;;;;0.30;0.20;;;12.40;99.90;;;;;;4971897;28;20509;-64
2023/11/03 13:25:06;;;;;;;0.30;0.30;;;12.30;99.90;;;;;;4974188;28;20462;-65
2023/11/03 13:27:32;;;;;;;0.30;0.20;;;12.30;99.90;;;;;;4974509;28;20441;-67
2023/11/03 13:29:57;;;;;;;0.30;0.20;;;12.30;99.90;;;;;;4974660;28;20553;-65
2023/11/03 13:32:23;;;;;;;0.30;0.20;;;12.30;99.90;;;;;;4974496;28;20888;-68
2023/11/03 13:34:49;;;;;;;0.30;0.30;;;12.30;99.90;;;;;;4974010;28;20256;-67
2023/11/03 13:37:15;;;;;;;0.30;0.20;;;12.20;99.90;;;;;;4974517;28;20164;-65
2023/11/03 13:39:41;;;;;;;0.30;0.30;;;12.20;99.90;;;;;;4974244;28;20410;-65
2023/11/03 13:42:07;;;;;;;0.30;0.20;;;12.10;99.90;;;;;;4974275;28;20430;-68
2023/11/03 13:44:35;;;;;;;0.30;0.30;;;12.00;99.90;;;;;;4974102;28;20294;-71
2023/11/03 13:47:01;;;;;;;0.30;0.30;;;12.00;99.90;;;;;;4974308;28;20904;-66
2023/11/03 13:49:27;;;;;;;0.30;0.20;;;12.00;99.90;;;;;;4973910;28;20536;-68
2023/11/03 13:51:53;;;;;;;0.30;0.30;;;11.90;99.90;;;;;;4973594;28;20539;-66
2023/11/03 13:54:18;;;;;;;0.30;0.20;;;11.90;99.90;;;;;;4973547;28;20180;-63
2023/11/03 13:56:44;;;;;;;0.30;0.30;;;11.80;99.90;;;;;;4964678;28;20610;-64
2023/11/03 13:59:10;;;;;;;0.30;0.30;;;11.70;99.90;;;;;;4972606;28;20184;-65
2023/11/03 14:01:36;;;;;;;0.30;0.20;;;11.70;99.90;;;;;;4972241;28;20663;-68
2023/11/03 14:04:02;;;;;;;0.30;0.20;;;11.60;99.90;;;;;;4973592;28;20183;-63
2023/11/03 14:06:28;;;;;;;0.30;0.20;;;11.50;99.90;;;;;;4973704;28;20472;-66
2023/11/03 14:08:54;;;;;;;0.30;0.20;;;11.50;99.90;;;;;;4973684;28;20518;-63
2023/11/03 14:11:20;;;;;;;0.30;0.30;;;11.40;99.90;;;;;;4973810;28;20446;-64
2023/11/03 14:13:47;;;;;;;0.30;0.30;;;11.40;99.90;;;;;;4966113;28;20475;-67
2023/11/03 14:16:14;;;;;;;0.30;0.30;;;11.40;99.90;;;;;;4954603;28;20836;-66
2023/11/03 14:18:40;;;;;;;0.30;0.30;;;11.30;99.90;;;;;;4954637;28;20446;-64
2023/11/03 14:21:05;;;;;;;0.40;0.40;;;11.30;99.90;;;;;;4954548;28;20405;-62
2023/11/03 14:23:31;;;;;;;0.30;0.20;;;11.20;99.90;;;;;;4954409;29;20178;-67
2023/11/03 14:25:58;;;;;;;0.30;0.20;;;11.10;99.90;;;;;;4954187;28;20688;-64
2023/11/03 14:28:24;;;;;;;0.30;0.20;;;11.10;99.90;;;;;;4954765;28;20437;-62
2023/11/03 14:30:51;;;;;;;0.30;0.30;;;11.00;99.90;;;;;;4954622;28;20453;-64
2023/11/03 14:33:19;;;;;;;0.30;0.20;;;11.00;99.90;;;;;;4957243;28;20654;-64
2023/11/03 14:35:46;;;;;;;0.30;0.20;;;11.00;99.90;;;;;;4957423;28;20252;-64
2023/11/03 14:38:14;;;;;;;0.30;0.30;;;11.00;99.90;;;;;;4957924;28;20298;-63
2023/11/03 14:40:41;;;;;;;0.30;0.20;;;10.90;99.90;;;;;;4969285;28;20237;-62
2023/11/03 14:43:08;;;;;;;0.30;0.20;;;10.90;99.90;;;;;;4974241;28;20929;-65
2023/11/03 14:45:34;;;;;;;0.30;0.30;;;10.90;99.90;;;;;;4973809;28;20288;-65
2023/11/03 14:47:59;;;;;;;0.30;0.27;;;10.90;99.90;;;;;;4957830;28;20460;-64
2023/11/03 14:50:25;;;;;;;0.30;0.30;;;10.90;99.90;;;;;;4957496;29;20274;-66
2023/11/03 14:52:51;;;;;;;0.30;0.30;;;10.90;99.90;;;;;;4957647;29;20649;-62
2023/11/03 14:55:17;;;;;;;0.30;0.20;;;10.80;99.90;;;;;;4957280;28;20221;-65
2023/11/03 14:57:43;;;;;;;0.30;0.30;;;10.80;99.90;;;;;;4957761;29;20202;-64
2023/11/03 15:00:12;;;;;;;0.40;0.40;;;10.80;99.90;;;;;;4957701;29;20938;-63
2023/11/03 15:02:41;;;;;;;0.30;0.30;;;10.80;99.90;;;;;;4957588;28;20274;-63
2023/11/03 15:05:10;;;;;;;0.30;0.30;;;10.70;99.90;;;;;;4956718;28;20784;-64
2023/11/03 15:07:38;;;;;;;0.30;0.30;;;10.80;99.90;;;;;;4955755;28;20201;-63
2023/11/03 15:10:08;;;;;;;0.32;0.32;;;10.80;99.90;;;;;;4957119;28;20205;-64
2023/11/03 15:12:37;;;;;;;0.30;0.20;;;10.70;99.90;;;;;;4957337;28;20198;-70
2023/11/03 15:15:03;;;;;;;0.30;0.28;;;10.70;99.90;;;;;;4956906;28;20472;-73
2023/11/03 15:17:28;;;;;;;0.30;0.30;;;10.60;99.90;;;;;;4957279;28;20641;-64
2023/11/03 15:19:54;;;;;;;0.90;0.90;;;10.50;99.90;;;;;;4957075;29;20285;-63
2023/11/03 15:22:20;;;;;;;0.30;0.30;;;10.50;99.90;;;;;;4957336;29;20544;-64
2023/11/03 15:24:46;;;;;;;0.30;0.30;;;10.30;99.90;;;;;;4956697;28;20178;-66
2023/11/03 15:27:11;;;;;;;0.30;0.30;;;10.30;99.90;;;;;;4958142;28;20422;-66
2023/11/03 15:29:37;;;;;;;0.30;0.20;;;10.10;99.90;;;;;;4967631;28;20715;-63
2023/11/03 15:32:03;;;;;;;0.30;0.30;;;10.00;99.90;;;;;;4957700;28;20767;-67
2023/11/03 15:34:30;;;;;;;0.30;0.30;;;9.90;99.90;;;;;;4974370;28;20180;-64
2023/11/03 15:36:56;;;;;;;0.30;0.30;;;9.80;99.90;;;;;;4974691;28;20204;-65
2023/11/03 15:39:34;;;;;;;0.30;0.20;;;9.70;99.90;;;;;;4975535;28;20181;-63
2023/11/03 15:42:06;;;;;;;0.30;0.30;;;9.60;99.90;;;;;;4974563;28;20677;-63
2023/11/03 15:44:31;;;;;;;0.30;0.30;;;9.50;99.90;;;;;;4974589;28;20180;-63
2023/11/03 15:46:57;;;;;;;0.30;0.30;;;9.40;99.90;;;;;;4973966;28;20216;-65
2023/11/03 15:49:25;;;;;;;0.30;0.20;;;9.30;99.90;;;;;;4975674;28;20255;-66
2023/11/03 15:51:51;;;;;;;0.30;0.30;;;9.30;99.90;;;;;;4975808;28;20434;-64
2023/11/03 15:54:17;;;;;;;0.30;0.20;;;9.20;99.90;;;;;;4975148;28;20169;-61
2023/11/03 15:56:46;;;;;;;0.30;0.30;;;9.20;99.90;;;;;;4975291;28;20200;-65
2023/11/03 15:59:12;;;;;;;0.30;0.30;;;9.10;99.90;;;;;;4973099;28;20176;-66
2023/11/03 16:01:38;;;;;;;0.30;0.30;;;9.10;99.90;;;;;;4975096;28;20602;-64
2023/11/03 16:04:04;;;;;;;0.30;0.30;;;9.10;99.90;;;;;;4974929;28;20459;-65
2023/11/03 16:06:31;;;;;;;0.30;0.30;;;9.10;99.90;;;;;;4975006;28;20224;-67
2023/11/03 16:08:57;;;;;;;0.30;0.30;;;9.10;99.90;;;;;;4975155;28;20968;-66
2023/11/03 16:11:23;;;;;;;0.30;0.20;;;9.00;99.90;;;;;;4975621;28;20263;-66
2023/11/03 16:13:49;;;;;;;0.30;0.20;;;9.00;99.90;;;;;;4972122;28;20180;-65
2023/11/03 16:16:15;;;;;;;0.30;0.30;;;8.90;99.90;;;;;;4974839;28;20207;-64
2023/11/03 16:18:40;;;;;;;0.30;0.30;;;8.90;99.90;;;;;;4974945;28;20184;-65
2023/11/03 16:21:06;;;;;;;0.30;0.30;;;8.80;99.90;;;;;;4969476;28;20211;-65
2023/11/03 16:23:32;;;;;;;0.30;0.30;;;8.80;99.90;;;;;;4965273;28;20191;-65
2023/11/03 16:25:58;;;;;;;0.30;0.30;;;8.70;99.90;;;;;;4974554;28;20295;-61
2023/11/03 16:28:29;;;;;;;0.30;0.30;;;8.70;99.90;;;;;;4974918;28;20434;-63
2023/11/03 16:30:54;;;;;;;0.30;0.30;;;8.60;99.90;;;;;;4974776;28;20213;-61
2023/11/03 16:33:20;;;;;;;0.40;0.40;;;8.60;99.90;;;;;;4974677;28;20179;-62
2023/11/03 16:35:45;;;;;;;0.30;0.30;;;8.50;99.90;;;;;;4974575;28;20219;-64
2023/11/03 16:38:11;;;;;;;0.30;0.20;;;8.50;99.90;;;;;;4975030;28;20175;-63
2023/11/03 16:40:42;;;;;;;0.30;0.30;;;8.50;99.90;;;;;;4974179;28;20312;-64
2023/11/03 16:43:08;;;;;;;0.30;0.20;;;8.50;99.90;;;;;;4973963;28;20208;-62
2023/11/03 16:45:34;;;;;;;0.30;0.30;;;8.40;99.90;;;;;;4973216;28;20260;-62
2023/11/03 16:48:00;;;;;;;0.40;0.40;;;8.30;99.90;;;;;;4974367;28;20255;-63
2023/11/03 16:50:26;;;;;;;0.30;0.20;;;8.30;99.90;;;;;;4974708;28;20290;-62
2023/11/03 16:52:52;;;;;;;0.30;0.30;;;8.20;99.90;;;;;;4974981;28;20168;-63
2023/11/03 16:55:18;;;;;;;0.30;0.30;;;8.20;99.90;;;;;;4973601;28;20196;-67
2023/11/03 16:57:44;;;;;;;0.30;0.30;;;8.10;99.90;;;;;;4974766;28;20183;-65
2023/11/03 17:00:16;;;;;;;0.30;0.30;;;8.10;99.90;;;;;;4975132;28;20203;-66